createdAt,value
2018-10-12T00:00:19.090Z,19.77
2018-10-12T00:02:47.011Z,26.48
2018-10-12T00:05:14.199Z,25.50
2018-10-12T00:07:42.056Z,20.97
2018-10-12T00:10:10.092Z,21.23
2018-10-12T00:12:37.300Z,19.62
2018-10-12T00:15:04.544Z,22.45
2018-10-12T00:17:31.685Z,19.25
2018-10-12T00:19:58.890Z,23.15
2018-10-12T00:22:26.261Z,19.75
2018-10-12T00:24:53.461Z,24.50
2018-10-12T00:27:20.754Z,19.12
2018-10-12T00:29:48.227Z,24.55
2018-10-12T00:32:15.664Z,23.07
2018-10-12T00:34:42.825Z,20.57
2018-10-12T00:37:10.577Z,19.70
2018-10-12T00:39:37.854Z,23.22
2018-10-12T00:42:05.057Z,23.47
2018-10-12T00:44:32.911Z,25.43
2018-10-12T00:47:00.400Z,21.62
2018-10-12T00:49:27.586Z,21.07
2018-10-12T00:51:55.383Z,21.42
2018-10-12T00:54:22.521Z,22.52
2018-10-12T00:56:49.800Z,19.98
2018-10-12T00:59:17.711Z,22.60
2018-10-12T01:01:44.930Z,23.25
2018-10-12T01:04:12.181Z,24.25
2018-10-12T01:06:40.209Z,20.20
2018-10-12T01:09:08.026Z,21.68
2018-10-12T01:11:36.023Z,30.25
2018-10-12T01:14:03.233Z,23.35
2018-10-12T01:16:30.463Z,20.68
2018-10-12T01:18:57.575Z,24.02
2018-10-12T01:21:24.764Z,21.37
2018-10-12T01:23:51.873Z,23.32
2018-10-12T01:26:19.638Z,22.82
2018-10-12T01:28:49.729Z,22.67
2018-10-12T01:31:16.958Z,23.90
2018-10-12T01:33:44.404Z,24.98
2018-10-12T01:36:11.587Z,26.97
2018-10-12T01:38:39.484Z,21.75
2018-10-12T01:41:06.850Z,21.93
2018-10-12T01:43:34.331Z,25.32
2018-10-12T01:46:01.699Z,25.88
2018-10-12T01:48:28.877Z,23.52
2018-10-12T01:50:56.766Z,26.23
2018-10-12T01:53:23.900Z,24.57
2018-10-12T01:55:56.314Z,50.55
2018-10-12T01:58:23.990Z,27.07
2018-10-12T02:00:51.195Z,25.40
2018-10-12T02:03:18.420Z,28.32
2018-10-12T02:05:45.684Z,27.73
2018-10-12T02:08:12.993Z,26.97
2018-10-12T02:10:40.177Z,25.48
2018-10-12T02:13:08.003Z,26.37
2018-10-12T02:15:35.221Z,29.10
2018-10-12T02:18:02.437Z,28.27
2018-10-12T02:20:29.674Z,24.50
2018-10-12T02:22:56.868Z,28.10
2018-10-12T02:25:24.383Z,26.95
2018-10-12T02:27:51.827Z,28.20
2018-10-12T02:30:19.338Z,25.37
2018-10-12T02:32:46.684Z,27.13
2018-10-12T02:35:13.893Z,28.42
2018-10-12T02:37:41.076Z,29.23
2018-10-12T02:40:08.419Z,26.60
2018-10-12T02:42:35.681Z,27.13
2018-10-12T02:45:02.839Z,28.42
2018-10-12T02:47:30.050Z,25.65
2018-10-12T02:49:57.358Z,26.62
2018-10-12T02:52:24.478Z,23.05
2018-10-12T02:54:51.721Z,27.90
2018-10-12T02:57:18.892Z,26.65
2018-10-12T02:59:46.301Z,27.25
2018-10-12T03:02:13.728Z,25.15
2018-10-12T03:04:40.932Z,28.32
2018-10-12T03:07:08.204Z,24.82
2018-10-12T03:09:35.394Z,31.25
2018-10-12T03:12:02.552Z,26.75
2018-10-12T03:14:29.730Z,26.60
2018-10-12T03:16:57.028Z,28.55
2018-10-12T03:19:24.315Z,24.00
2018-10-12T03:21:51.529Z,28.80
2018-10-12T03:24:18.750Z,27.10
2018-10-12T03:26:45.949Z,26.87
2018-10-12T03:29:13.125Z,29.55
2018-10-12T03:31:40.806Z,29.02
2018-10-12T03:34:08.046Z,29.57
2018-10-12T03:36:35.236Z,27.98
2018-10-12T03:39:04.398Z,26.60
2018-10-12T03:41:31.648Z,28.55
2018-10-12T03:43:58.889Z,28.73
2018-10-12T03:46:26.146Z,30.40
2018-10-12T03:48:53.327Z,27.67
2018-10-12T03:51:21.250Z,27.73
2018-10-12T03:53:48.657Z,31.93
2018-10-12T03:56:15.874Z,32.48
2018-10-12T03:58:43.031Z,26.35
2018-10-12T04:01:10.231Z,28.02
2018-10-12T04:03:39.199Z,29.40
2018-10-12T04:06:06.853Z,31.07
2018-10-12T04:08:35.710Z,33.75
2018-10-12T04:11:04.979Z,26.80
2018-10-12T04:13:33.482Z,32.05
2018-10-12T04:16:03.446Z,30.25
2018-10-12T04:18:31.636Z,27.80
2018-10-12T04:21:00.339Z,31.02
2018-10-12T04:23:28.450Z,33.42
2018-10-12T04:25:56.842Z,30.70
2018-10-12T04:28:24.766Z,34.83
2018-10-12T04:30:54.506Z,30.88
2018-10-12T04:33:22.756Z,29.42
2018-10-12T04:35:52.058Z,36.20
2018-10-12T04:38:21.398Z,29.87
2018-10-12T04:41:01.824Z,31.50
2018-10-12T04:43:31.581Z,29.55
2018-10-12T04:46:01.024Z,29.70
2018-10-12T04:48:29.911Z,32.08
2018-10-12T04:50:59.467Z,29.20
2018-10-12T04:53:28.109Z,31.70
2018-10-12T04:55:56.222Z,35.43
2018-10-12T04:58:24.352Z,29.98
2018-10-12T05:00:53.332Z,33.02
2018-10-12T05:03:21.312Z,36.30
2018-10-12T05:05:50.640Z,44.13
2018-10-12T05:08:18.515Z,35.90
2018-10-12T05:10:46.072Z,40.17
2018-10-12T05:13:13.293Z,35.25
2018-10-12T05:15:41.297Z,35.03
2018-10-12T05:18:09.160Z,39.27
2018-10-12T05:20:36.602Z,38.67
2018-10-12T05:23:04.077Z,49.85
2018-10-12T05:25:31.578Z,38.30
2018-10-12T05:27:58.779Z,40.78
2018-10-12T05:30:26.143Z,38.58
2018-10-12T05:32:53.361Z,37.73
2018-10-12T05:35:20.539Z,36.03
2018-10-12T05:37:48.838Z,34.88
2018-10-12T05:40:16.376Z,29.55
2018-10-12T05:42:43.719Z,33.98
2018-10-12T05:45:11.183Z,30.65
2018-10-12T05:47:38.577Z,33.20
2018-10-12T05:50:07.719Z,32.45
2018-10-12T05:52:35.526Z,34.50
2018-10-12T05:55:02.795Z,35.17
2018-10-12T05:57:30.932Z,42.62
2018-10-12T05:59:58.970Z,34.18
2018-10-12T06:02:26.643Z,36.98
2018-10-12T06:04:54.043Z,33.98
2018-10-12T06:07:21.543Z,34.25
2018-10-12T06:09:49.210Z,32.88
2018-10-12T06:12:16.451Z,38.30
2018-10-12T06:14:43.804Z,34.40
2018-10-12T06:17:11.268Z,36.17
2018-10-12T06:19:38.814Z,34.98
2018-10-12T06:22:06.919Z,30.55
2018-10-12T06:24:35.537Z,36.98
2018-10-12T06:27:02.934Z,36.25
2018-10-12T06:29:31.511Z,41.75
2018-10-12T06:31:59.571Z,37.03
2018-10-12T06:34:26.971Z,40.60
2018-10-12T06:36:55.825Z,33.75
2018-10-12T06:39:23.337Z,38.42
2018-10-12T06:41:50.976Z,35.78
2018-10-12T06:44:18.291Z,39.42
2018-10-12T06:46:45.804Z,36.48
2018-10-12T06:49:12.984Z,37.05
2018-10-12T06:51:40.709Z,33.60
2018-10-12T06:54:08.198Z,39.78
2018-10-12T06:56:35.424Z,36.50
2018-10-12T06:59:02.604Z,37.58
2018-10-12T07:01:30.073Z,30.08
2018-10-12T07:03:57.764Z,36.42
2018-10-12T07:06:24.891Z,39.80
2018-10-12T07:08:51.982Z,40.58
2018-10-12T07:11:19.548Z,37.50
2018-10-12T07:13:47.614Z,39.13
2018-10-12T07:16:15.587Z,35.45
2018-10-12T07:18:42.776Z,37.67
2018-10-12T07:21:10.002Z,39.25
2018-10-12T07:23:37.936Z,38.78
2018-10-12T07:26:05.572Z,36.15
2018-10-12T07:28:32.901Z,37.23
2018-10-12T07:31:00.743Z,36.75
2018-10-12T07:33:28.189Z,35.43
2018-10-12T07:35:55.384Z,40.43
2018-10-12T07:38:22.644Z,40.60
2018-10-12T07:40:49.775Z,38.63
2018-10-12T07:43:17.233Z,33.55
2018-10-12T07:45:44.519Z,28.20
2018-10-12T07:48:11.720Z,32.85
2018-10-12T07:50:39.587Z,34.27
2018-10-12T07:53:06.754Z,36.45
2018-10-12T07:55:34.493Z,34.18
2018-10-12T07:58:01.683Z,33.85
2018-10-12T08:00:29.109Z,32.95
2018-10-12T08:02:56.334Z,37.42
2018-10-12T08:05:23.598Z,34.38
2018-10-12T08:07:50.811Z,33.00
2018-10-12T08:10:20.687Z,31.77
2018-10-12T08:12:49.234Z,30.52
2018-10-12T08:15:18.959Z,28.75
2018-10-12T08:17:55.976Z,34.15
2018-10-12T08:20:23.906Z,35.92
2018-10-12T08:22:53.996Z,29.85
2018-10-12T08:25:22.053Z,28.73
2018-10-12T08:27:49.481Z,25.60
2018-10-12T08:30:17.072Z,26.10
2018-10-12T08:32:46.057Z,26.30
2018-10-12T08:35:14.795Z,29.35
2018-10-12T08:37:42.649Z,27.82
2018-10-12T08:40:10.067Z,27.25
2018-10-12T08:42:37.561Z,27.05
2018-10-12T08:45:05.063Z,27.40
2018-10-12T08:47:32.413Z,27.62
2018-10-12T08:49:59.907Z,27.13
2018-10-12T08:52:27.755Z,29.00
2018-10-12T08:54:55.535Z,28.90
2018-10-12T08:57:23.336Z,28.87
2018-10-12T08:59:51.351Z,29.67
2018-10-12T09:02:18.843Z,23.60
2018-10-12T09:04:46.239Z,28.17
2018-10-12T09:07:14.509Z,29.12
2018-10-12T09:09:41.984Z,29.50
2018-10-12T09:12:09.609Z,26.97
2018-10-12T09:14:36.918Z,30.02
2018-10-12T09:17:06.137Z,30.72
2018-10-12T09:19:33.785Z,26.20
2018-10-12T09:22:01.847Z,24.80
2018-10-12T09:24:29.093Z,28.90
2018-10-12T09:26:56.585Z,27.65
2018-10-12T09:29:24.068Z,28.20
2018-10-12T09:31:52.281Z,28.05
2018-10-12T09:34:19.875Z,26.73
2018-10-12T09:36:47.270Z,31.00
2018-10-12T09:39:14.898Z,27.93
2018-10-12T09:41:43.078Z,29.23
2018-10-12T09:44:10.566Z,29.10
2018-10-12T09:46:37.908Z,29.57
2018-10-12T09:49:05.607Z,27.90
2018-10-12T09:51:33.673Z,28.40
2018-10-12T09:54:02.780Z,25.43
2018-10-12T09:56:31.118Z,30.32
2018-10-12T09:58:58.416Z,26.10
2018-10-12T10:01:31.731Z,33.53
2018-10-12T10:04:04.709Z,28.40
2018-10-12T10:06:32.391Z,33.23
2018-10-12T10:08:59.762Z,32.95
2018-10-12T10:11:27.295Z,28.62
2018-10-12T10:13:54.788Z,29.15
2018-10-12T10:16:22.212Z,34.30
2018-10-12T10:18:49.590Z,31.37
2018-10-12T10:21:17.269Z,31.60
2018-10-12T10:23:44.527Z,30.45
2018-10-12T10:26:11.822Z,26.15
2018-10-12T10:28:39.396Z,25.57
2018-10-12T10:31:06.913Z,24.00
2018-10-12T10:33:34.486Z,28.00
2018-10-12T10:36:01.828Z,24.20
2018-10-12T10:38:29.271Z,26.85
2018-10-12T10:40:56.591Z,20.62
2018-10-12T10:43:24.258Z,25.85
2018-10-12T10:45:51.679Z,26.50
2018-10-12T10:48:19.138Z,28.55
2018-10-12T10:50:46.578Z,24.20
2018-10-12T10:53:14.528Z,24.52
2018-10-12T10:55:42.245Z,24.35
2018-10-12T10:58:09.527Z,26.10
2018-10-12T11:00:37.120Z,21.90
2018-10-12T11:03:04.569Z,29.32
2018-10-12T11:05:32.004Z,23.80
2018-10-12T11:07:59.451Z,22.90
2018-10-12T11:10:26.980Z,21.45
2018-10-12T11:12:54.635Z,24.27
2018-10-12T11:15:21.834Z,21.60
2018-10-12T11:17:49.371Z,20.48
2018-10-12T11:20:16.977Z,25.85
2018-10-12T11:22:45.458Z,26.17
2018-10-12T11:25:13.987Z,24.98
2018-10-12T11:27:41.644Z,27.22
2018-10-12T11:30:09.271Z,27.42
2018-10-12T11:32:36.771Z,23.35
2018-10-12T11:35:04.994Z,24.27
2018-10-12T11:37:33.868Z,21.60
2018-10-12T11:40:01.337Z,27.05
2018-10-12T11:42:41.047Z,25.35
2018-10-12T11:45:08.808Z,30.82
2018-10-12T11:47:37.080Z,21.37
2018-10-12T11:50:05.628Z,23.67
2018-10-12T11:52:33.375Z,24.90
2018-10-12T11:55:01.563Z,21.37
2018-10-12T11:57:29.195Z,27.48
2018-10-12T11:59:56.984Z,28.52
2018-10-12T12:02:25.355Z,22.35
2018-10-12T12:04:52.624Z,22.87
2018-10-12T12:07:20.604Z,20.52
2018-10-12T12:09:48.253Z,23.57
2018-10-12T12:12:15.748Z,26.82
2018-10-12T12:14:43.717Z,22.02
2018-10-12T12:17:11.283Z,24.05
2018-10-12T12:19:44.497Z,22.22
2018-10-12T12:22:13.102Z,20.68
2018-10-12T12:24:43.182Z,21.85
2018-10-12T12:27:11.088Z,21.33
2018-10-12T12:29:38.753Z,26.20
2018-10-12T12:32:06.908Z,22.93
2018-10-12T12:34:34.981Z,22.98
2018-10-12T12:37:03.588Z,26.52
2018-10-12T12:39:32.246Z,26.93
2018-10-12T12:42:00.139Z,20.77
2018-10-12T12:44:28.331Z,20.68
2018-10-12T12:46:56.262Z,19.25
2018-10-12T12:49:24.062Z,20.45
2018-10-12T12:51:51.254Z,17.23
2018-10-12T12:54:18.574Z,13.38
2018-10-12T12:56:46.134Z,18.73
2018-10-12T12:59:14.348Z,20.48
2018-10-12T13:01:41.973Z,21.50
2018-10-12T13:04:10.165Z,20.40
2018-10-12T13:06:37.547Z,25.05
2018-10-12T13:09:06.445Z,23.02
2018-10-12T13:11:34.127Z,20.57
2018-10-12T13:14:01.538Z,19.27
2018-10-12T13:16:29.013Z,20.70
2018-10-12T13:18:56.582Z,18.20
2018-10-12T13:21:23.873Z,18.25
2018-10-12T13:23:51.347Z,24.65
2018-10-12T13:26:19.606Z,24.45
2018-10-12T13:28:49.173Z,18.87
2018-10-12T13:31:21.665Z,22.02
2018-10-12T13:33:52.494Z,16.35
2018-10-12T13:36:21.730Z,18.42
2018-10-12T13:38:50.946Z,16.70
2018-10-12T13:41:21.715Z,17.07
2018-10-12T13:43:49.821Z,16.40
2018-10-12T13:46:17.462Z,17.73
2018-10-12T13:48:44.652Z,15.72
2018-10-12T13:51:13.213Z,17.65
2018-10-12T13:53:40.513Z,27.98
2018-10-12T13:56:07.896Z,21.40
2018-10-12T13:58:35.506Z,20.05
2018-10-12T14:01:03.299Z,16.00
2018-10-12T14:03:31.145Z,19.25
2018-10-12T14:05:58.656Z,20.43
2018-10-12T14:08:26.018Z,19.85
2018-10-12T14:10:53.612Z,18.42
2018-10-12T14:13:20.919Z,17.05
2018-10-12T14:15:48.357Z,15.20
2018-10-12T14:18:15.908Z,21.33
2018-10-12T14:20:43.161Z,16.70
2018-10-12T14:23:10.711Z,16.62
2018-10-12T14:25:37.911Z,17.15
2018-10-12T14:28:05.067Z,18.52
2018-10-12T14:30:32.289Z,18.45
2018-10-12T14:32:59.946Z,14.03
2018-10-12T14:35:27.087Z,17.55
2018-10-12T14:37:54.745Z,17.27
2018-10-12T14:40:22.135Z,17.73
2018-10-12T14:42:49.519Z,20.77
2018-10-12T14:45:16.959Z,18.85
2018-10-12T14:47:44.418Z,20.55
2018-10-12T14:50:11.938Z,18.23
2018-10-12T14:52:39.117Z,17.32
2018-10-12T14:55:06.802Z,19.35
2018-10-12T14:57:34.045Z,21.73
2018-10-12T15:00:01.233Z,15.85
2018-10-12T15:02:28.371Z,18.42
2018-10-12T15:04:55.488Z,16.37
2018-10-12T15:07:22.607Z,17.10
2018-10-12T15:09:49.760Z,20.45
2018-10-12T15:12:17.331Z,16.67
2018-10-12T15:14:56.297Z,15.63
2018-10-12T15:17:23.829Z,19.73
2018-10-12T15:19:51.193Z,15.98
2018-10-12T15:22:18.421Z,16.42
2018-10-12T15:24:46.128Z,18.92
2018-10-12T15:27:13.798Z,15.80
2018-10-12T15:29:41.066Z,18.57
2018-10-12T15:32:08.655Z,19.42
2018-10-12T15:34:36.050Z,18.45
2018-10-12T15:37:03.424Z,19.55
2018-10-12T15:39:30.917Z,20.40
2018-10-12T15:41:58.404Z,21.45
2018-10-12T15:44:25.865Z,20.50
2018-10-12T15:46:53.103Z,20.80
2018-10-12T15:49:20.265Z,23.80
2018-10-12T15:51:47.411Z,21.55
2018-10-12T15:54:14.763Z,23.98
2018-10-12T15:56:42.359Z,20.80
2018-10-12T15:59:09.699Z,19.32
2018-10-12T16:01:37.223Z,20.08
2018-10-12T16:04:04.571Z,19.62
2018-10-12T16:06:32.200Z,20.72
2018-10-12T16:08:59.987Z,18.77
2018-10-12T16:11:27.948Z,23.30
2018-10-12T16:13:56.075Z,18.50
2018-10-12T16:16:23.544Z,20.30
2018-10-12T16:18:51.157Z,25.00
2018-10-12T16:21:18.410Z,22.98
2018-10-12T16:23:47.871Z,25.23
2018-10-12T16:26:17.784Z,19.75
2018-10-12T16:28:45.735Z,24.20
2018-10-12T16:31:13.239Z,26.10
2018-10-12T16:33:40.760Z,20.35
2018-10-12T16:36:08.088Z,22.82
2018-10-12T16:38:35.656Z,24.40
2018-10-12T16:41:02.906Z,21.35
2018-10-12T16:43:30.111Z,24.27
2018-10-12T16:45:57.970Z,21.65
2018-10-12T16:48:25.195Z,25.43
2018-10-12T16:50:52.496Z,23.55
2018-10-12T16:53:20.283Z,24.43
2018-10-12T16:55:47.721Z,23.57
2018-10-12T16:58:15.504Z,20.50
2018-10-12T17:00:43.757Z,26.23
2018-10-12T17:03:11.063Z,23.45
2018-10-12T17:05:38.499Z,23.27
2018-10-12T17:08:05.869Z,24.65
2018-10-12T17:10:33.863Z,25.30
2018-10-12T17:13:01.828Z,24.20
2018-10-12T17:15:30.882Z,20.50
2018-10-12T17:17:58.946Z,20.90
2018-10-12T17:20:26.455Z,22.70
2018-10-12T17:22:53.847Z,27.62
2018-10-12T17:25:21.305Z,21.55
2018-10-12T17:27:49.108Z,26.55
2018-10-12T17:30:17.131Z,25.37
2018-10-12T17:32:45.395Z,20.00
2018-10-12T17:35:13.140Z,26.85
2018-10-12T17:37:41.079Z,24.05
2018-10-12T17:40:09.255Z,23.47
2018-10-12T17:42:36.842Z,29.45
2018-10-12T17:45:05.083Z,25.17
2018-10-12T17:47:32.577Z,33.95
2018-10-12T17:49:59.949Z,32.95
2018-10-12T17:52:27.496Z,41.05
2018-10-12T17:54:55.034Z,32.98
2018-10-12T17:57:24.821Z,27.25
2018-10-12T17:59:52.405Z,35.28
2018-10-12T18:02:19.718Z,28.42
2018-10-12T18:04:47.192Z,31.42
2018-10-12T18:07:14.599Z,28.12
2018-10-12T18:09:42.182Z,33.20
2018-10-12T18:12:09.507Z,28.67
2018-10-12T18:14:37.491Z,32.20
2018-10-12T18:17:05.604Z,32.42
2018-10-12T18:19:33.604Z,33.83
2018-10-12T18:22:00.744Z,34.60
2018-10-12T18:24:28.498Z,37.93
2018-10-12T18:26:55.963Z,43.55
2018-10-12T18:29:23.412Z,35.85
2018-10-12T18:31:50.846Z,35.80
2018-10-12T18:34:18.324Z,45.95
2018-10-12T18:36:46.008Z,36.42
2018-10-12T18:39:14.220Z,40.25
2018-10-12T18:41:41.650Z,40.35
2018-10-12T18:44:10.139Z,39.88
2018-10-12T18:46:37.553Z,38.55
2018-10-12T18:49:05.038Z,33.02
2018-10-12T18:51:33.060Z,33.23
2018-10-12T18:54:00.348Z,40.63
2018-10-12T18:56:27.865Z,32.40
2018-10-12T18:58:55.428Z,31.45
2018-10-12T19:01:22.772Z,30.70
2018-10-12T19:03:50.384Z,34.33
2018-10-12T19:06:18.555Z,31.37
2018-10-12T19:08:46.038Z,30.92
2018-10-12T19:11:13.644Z,33.30
2018-10-12T19:13:41.024Z,25.75
2018-10-12T19:16:08.380Z,26.70
2018-10-12T19:18:35.905Z,30.37
2018-10-12T19:21:03.264Z,27.90
2018-10-12T19:23:34.077Z,30.23
2018-10-12T19:26:03.390Z,33.30
2018-10-12T19:28:31.854Z,33.28
2018-10-12T19:30:59.764Z,27.00
2018-10-12T19:33:27.684Z,34.90
2018-10-12T19:35:55.341Z,31.57
2018-10-12T19:38:22.795Z,31.23
2018-10-12T19:40:50.227Z,30.88
2018-10-12T19:43:17.807Z,25.65
2018-10-12T19:45:45.914Z,27.45
2018-10-12T19:48:16.521Z,33.28
2018-10-12T19:50:45.124Z,36.35
2018-10-12T19:53:13.063Z,31.02
2018-10-12T19:55:41.095Z,31.52
2018-10-12T19:58:09.632Z,32.65
2018-10-12T20:00:37.395Z,27.17
2018-10-12T20:03:04.702Z,30.32
2018-10-12T20:05:32.238Z,30.62
2018-10-12T20:07:59.657Z,33.83
2018-10-12T20:10:28.444Z,36.20
2018-10-12T20:12:56.211Z,35.40
2018-10-12T20:15:23.652Z,33.28
2018-10-12T20:17:51.204Z,34.80
2018-10-12T20:20:18.591Z,39.48
2018-10-12T20:22:47.124Z,33.73
2018-10-12T20:25:15.087Z,36.40
2018-10-12T20:27:42.554Z,37.35
2018-10-12T20:30:09.995Z,31.73
2018-10-12T20:32:37.593Z,40.75
2018-10-12T20:35:04.988Z,41.35
2018-10-12T20:37:32.472Z,36.50
2018-10-12T20:39:59.748Z,37.83
2018-10-12T20:42:27.367Z,34.48
2018-10-12T20:44:54.680Z,40.43
2018-10-12T20:47:22.159Z,38.35
2018-10-12T20:49:49.656Z,31.65
2018-10-12T20:52:17.105Z,34.38
2018-10-12T20:54:45.395Z,37.35
2018-10-12T20:57:12.672Z,35.10
2018-10-12T20:59:40.248Z,33.63
2018-10-12T21:02:07.889Z,41.90
2018-10-12T21:04:35.042Z,32.53
2018-10-12T21:07:03.160Z,39.18
2018-10-12T21:09:30.618Z,32.30
2018-10-12T21:11:58.429Z,33.40
2018-10-12T21:14:25.824Z,33.88
2018-10-12T21:16:53.393Z,39.18
2018-10-12T21:19:20.814Z,37.83
2018-10-12T21:21:48.255Z,31.25
2018-10-12T21:24:15.643Z,37.40
2018-10-12T21:26:45.082Z,33.08
2018-10-12T21:29:13.084Z,33.25
2018-10-12T21:31:40.517Z,29.18
2018-10-12T21:34:08.099Z,32.38
2018-10-12T21:36:35.401Z,30.65
2018-10-12T21:39:03.936Z,37.17
2018-10-12T21:41:31.984Z,33.33
2018-10-12T21:43:59.450Z,31.77
2018-10-12T21:46:26.879Z,45.83
2018-10-12T21:48:53.996Z,38.13
2018-10-12T21:51:21.733Z,35.80
2018-10-12T21:53:49.273Z,37.93
2018-10-12T21:56:17.692Z,33.67
2018-10-12T21:58:45.680Z,41.45
2018-10-12T22:01:13.288Z,33.48
2018-10-12T22:03:40.779Z,34.05
2018-10-12T22:06:08.101Z,30.35
2018-10-12T22:08:41.271Z,35.60
2018-10-12T22:11:08.996Z,31.52
2018-10-12T22:13:36.842Z,30.70
2018-10-12T22:16:04.630Z,33.05
2018-10-12T22:18:32.065Z,36.60
2018-10-12T22:20:59.508Z,40.10
2018-10-12T22:23:26.848Z,34.48
2018-10-12T22:25:54.193Z,34.78
2018-10-12T22:28:21.819Z,35.17
2018-10-12T22:30:48.998Z,33.73
2018-10-12T22:33:17.268Z,34.90
2018-10-12T22:35:45.210Z,33.13
2018-10-12T22:38:12.453Z,38.20
2018-10-12T22:40:39.675Z,35.33
2018-10-12T22:43:06.923Z,37.15
2018-10-12T22:45:34.736Z,31.15
2018-10-12T22:48:02.293Z,40.00
2018-10-12T22:50:29.812Z,40.92
2018-10-12T22:52:57.139Z,38.30
2018-10-12T22:55:24.655Z,35.43
2018-10-12T22:57:57.530Z,36.68
2018-10-12T23:00:25.273Z,31.42
2018-10-12T23:02:52.732Z,31.95
2018-10-12T23:05:20.133Z,32.73
2018-10-12T23:07:48.428Z,34.45
2018-10-12T23:10:16.034Z,41.00
2018-10-12T23:12:43.662Z,36.23
2018-10-12T23:15:10.792Z,33.08
2018-10-12T23:17:38.329Z,35.55
2018-10-12T23:20:05.734Z,34.25
2018-10-12T23:22:39.678Z,34.38
2018-10-12T23:25:13.024Z,35.45
2018-10-12T23:27:46.877Z,33.60
2018-10-12T23:30:20.928Z,32.48
2018-10-12T23:33:05.175Z,34.48
2018-10-12T23:35:38.810Z,30.12
2018-10-12T23:38:12.804Z,36.85
2018-10-12T23:40:46.848Z,35.98
2018-10-12T23:43:20.874Z,36.35
2018-10-12T23:45:54.247Z,35.80
2018-10-12T23:48:27.503Z,36.80
2018-10-12T23:51:00.843Z,35.68
2018-10-12T23:53:34.683Z,35.05
2018-10-12T23:56:08.611Z,37.17
2018-10-12T23:58:42.737Z,34.45
